Time;durP1;ratioP1;P1;durP2;ratioP2;P2;SDS_P1;SDS_P2;PMS_P1;PMS_P2;Temp;Humidity;BMP_temperature;BMP_pressure;BME280_temperature;BME280_humidity;BME280_pressure;Samples;Min_cycle;Max_cycle;Signal;HPM_P1;HPM_P2
2022/06/10 00:01:10;;;;;;;5.18;1.50;;;13.50;99.90;;;;;;5026236;28;20060;-68
2022/06/10 00:03:36;;;;;;;6.40;2.00;;;13.50;99.90;;;;;;5042152;28;20045;-68
2022/06/10 00:06:04;;;;;;;4.57;2.13;;;13.50;99.90;;;;;;5031385;28;20068;-68
2022/06/10 00:08:43;;;;;;;3.10;1.67;;;13.40;99.90;;;;;;5038129;28;20029;-68
2022/06/10 00:11:10;;;;;;;6.68;1.90;;;13.40;99.90;;;;;;5032300;28;20075;-68
2022/06/10 00:13:38;;;;;;;9.32;1.88;;;13.40;99.90;;;;;;5032101;28;20035;-69
2022/06/10 00:16:05;;;;;;;4.85;1.95;;;13.40;99.90;;;;;;5026746;28;20509;-68
2022/06/10 00:18:32;;;;;;;3.30;1.50;;;13.40;99.90;;;;;;5021089;28;20045;-68
2022/06/10 00:21:00;;;;;;;3.83;2.00;;;13.40;99.90;;;;;;5036263;28;20029;-69
2022/06/10 00:23:26;;;;;;;4.50;1.90;;;13.40;99.90;;;;;;5034116;28;20029;-69
2022/06/10 00:25:52;;;;;;;4.60;1.60;;;13.30;99.90;;;;;;5041443;28;20099;-69
2022/06/10 00:28:18;;;;;;;5.65;1.73;;;13.30;99.90;;;;;;5036924;28;20072;-69
2022/06/10 00:30:43;;;;;;;9.93;1.80;;;13.30;99.90;;;;;;5030516;28;20087;-69
2022/06/10 00:33:09;;;;;;;4.30;2.00;;;13.30;99.90;;;;;;5033690;28;20049;-69
2022/06/10 00:35:35;;;;;;;3.15;1.80;;;13.30;99.90;;;;;;5034594;28;20440;-69
2022/06/10 00:38:01;;;;;;;6.82;2.17;;;13.30;99.90;;;;;;5022271;28;20045;-69
2022/06/10 00:40:32;;;;;;;8.73;2.38;;;13.30;99.90;;;;;;5032104;28;20520;-69
2022/06/10 00:42:58;;;;;;;7.25;2.28;;;13.30;99.90;;;;;;5027021;28;20179;-69
2022/06/10 00:46:02;;;;;;;6.45;2.08;;;13.30;99.90;;;;;;5028138;28;20162;-70
2022/06/10 00:48:31;;;;;;;6.40;1.73;;;13.30;99.90;;;;;;5026516;28;20055;-70
2022/06/10 00:50:59;;;;;;;3.28;1.90;;;13.30;99.90;;;;;;5029446;28;20045;-68
2022/06/10 00:53:32;;;;;;;14.25;2.40;;;13.20;99.90;;;;;;5029404;28;20045;-70
2022/06/10 00:56:00;;;;;;;3.08;1.90;;;13.20;99.90;;;;;;5036633;28;20040;-68
2022/06/10 00:58:40;;;;;;;3.65;1.60;;;13.20;99.90;;;;;;5033043;28;20486;-68
2022/06/10 01:01:07;;;;;;;4.93;1.80;;;13.20;99.90;;;;;;5008259;28;20398;-69
2022/06/10 01:03:33;;;;;;;;;;;13.20;99.90;;;;;;5031116;28;20124;-68
2022/06/10 01:06:00;;;;;;;9.00;1.80;;;13.10;99.90;;;;;;5031208;28;20425;-69
2022/06/10 01:08:26;;;;;;;5.47;1.88;;;13.10;99.90;;;;;;5046275;28;20045;-69
2022/06/10 01:11:16;;;;;;;8.35;1.80;;;13.10;99.90;;;;;;5034246;28;20042;-69
2022/06/10 01:14:01;;;;;;;2.78;1.45;;;13.10;99.90;;;;;;5011524;28;20050;-69
2022/06/10 01:16:49;;;;;;;4.78;2.03;;;13.00;99.90;;;;;;5030372;28;20087;-69
2022/06/10 01:19:48;;;;;;;5.55;1.90;;;13.00;99.90;;;;;;5027439;28;20041;-69
2022/06/10 01:22:43;;;;;;;4.28;1.65;;;13.00;99.90;;;;;;5032540;28;20131;-69
2022/06/10 01:25:27;;;;;;;6.05;2.08;;;13.00;99.90;;;;;;5025400;28;20045;-68
2022/06/10 01:28:20;;;;;;;15.70;2.53;;;13.00;99.90;;;;;;5029310;28;20041;-69
2022/06/10 01:31:10;;;;;;;5.60;2.63;;;12.90;99.90;;;;;;5028616;28;20033;-68
2022/06/10 01:34:18;;;;;;;8.65;1.88;;;12.90;99.90;;;;;;5032337;28;20368;-69
2022/06/10 01:36:49;;;;;;;5.53;2.42;;;12.90;99.90;;;;;;5040484;28;20038;-68
2022/06/10 01:39:53;;;;;;;5.22;2.22;;;12.90;99.90;;;;;;5030112;28;20080;-68
2022/06/10 01:42:32;;;;;;;7.03;1.88;;;12.90;99.90;;;;;;5014422;28;20149;-68
2022/06/10 01:45:29;;;;;;;3.40;1.90;;;12.90;99.90;;;;;;5029554;28;20124;-69
2022/06/10 01:48:04;;;;;;;5.15;2.50;;;12.90;99.90;;;;;;5044914;28;20402;-69
2022/06/10 01:50:44;;;;;;;6.20;2.10;;;12.80;99.90;;;;;;5015086;28;20380;-68
2022/06/10 01:53:22;;;;;;;6.07;2.10;;;12.80;99.90;;;;;;5030429;28;20041;-69
2022/06/10 01:55:53;;;;;;;7.72;2.00;;;12.80;99.90;;;;;;5035318;28;20351;-69
2022/06/10 01:58:25;;;;;;;4.60;1.80;;;12.80;99.90;;;;;;5030001;28;20048;-68
2022/06/10 02:00:54;;;;;;;6.75;2.10;;;12.80;99.90;;;;;;5027923;28;20042;-69
2022/06/10 02:03:34;;;;;;;5.30;2.03;;;12.80;99.90;;;;;;5030613;28;20562;-69
2022/06/10 02:06:05;;;;;;;7.93;2.15;;;12.80;99.90;;;;;;5030124;28;20140;-69
2022/06/10 02:08:55;;;;;;;6.45;1.90;;;12.80;99.90;;;;;;5024501;28;20053;-69
2022/06/10 02:11:25;;;;;;;4.72;2.25;;;12.80;99.90;;;;;;5016079;28;20204;-69
2022/06/10 02:13:58;;;;;;;6.00;1.98;;;12.80;99.90;;;;;;5022826;28;20045;-69
2022/06/10 02:16:28;;;;;;;5.30;1.90;;;12.80;99.90;;;;;;5012192;28;20136;-68
2022/06/10 02:18:59;;;;;;;5.88;1.77;;;12.80;99.90;;;;;;5024468;28;20552;-69
2022/06/10 02:21:34;;;;;;;6.47;2.15;;;12.80;99.90;;;;;;5028001;28;20110;-68
2022/06/10 02:24:09;;;;;;;3.72;1.92;;;12.80;99.90;;;;;;5024786;28;20463;-69
2022/06/10 02:26:37;;;;;;;8.18;2.15;;;12.80;99.90;;;;;;5029259;28;20410;-69
2022/06/10 02:29:08;;;;;;;4.10;1.92;;;12.80;99.90;;;;;;5038133;28;20073;-69
2022/06/10 02:31:40;;;;;;;5.53;1.90;;;12.80;99.90;;;;;;5029069;28;20044;-69
2022/06/10 02:34:07;;;;;;;6.85;1.83;;;12.80;99.90;;;;;;5029476;28;20092;-69
2022/06/10 02:36:46;;;;;;;7.07;2.10;;;12.80;99.90;;;;;;5026959;28;20083;-68
2022/06/10 02:39:25;;;;;;;4.15;1.75;;;12.80;99.90;;;;;;5016665;28;20443;-68
2022/06/10 02:41:50;;;;;;;3.55;1.63;;;12.80;99.90;;;;;;5024600;28;20124;-69
2022/06/10 02:44:35;;;;;;;4.57;2.53;;;12.80;99.90;;;;;;5035673;28;20087;-68
2022/06/10 02:47:24;;;;;;;3.75;2.10;;;12.80;99.90;;;;;;5031374;28;20041;-69
2022/06/10 02:49:50;;;;;;;8.48;1.60;;;12.80;99.90;;;;;;5021720;28;20092;-69
2022/06/10 02:52:17;;;;;;;;;;;12.80;99.90;;;;;;5020818;28;20033;-68
2022/06/10 02:54:43;;;;;;;5.50;1.75;;;12.70;99.90;;;;;;5019998;28;20287;-69
2022/06/10 03:01:11;;;;;;;10.32;2.25;;;12.70;99.90;;;;;;5027685;28;20040;-68
2022/06/10 03:03:09;;;;;;;5.95;2.15;;;12.70;99.90;;;;;;5039570;28;20129;-68
2022/06/10 03:05:49;;;;;;;8.30;2.35;;;12.60;99.90;;;;;;5016196;28;20046;-68
2022/06/10 03:08:26;;;;;;;5.55;2.00;;;12.60;99.90;;;;;;5026476;28;20449;-69
2022/06/10 03:11:04;;;;;;;9.05;2.10;;;12.60;99.90;;;;;;5029616;28;20247;-69
2022/06/10 03:13:55;;;;;;;8.30;2.25;;;12.60;99.90;;;;;;5027706;28;20087;-69
2022/06/10 03:16:35;;;;;;;6.55;1.92;;;12.60;99.90;;;;;;5030427;28;20186;-69
2022/06/10 03:19:01;;;;;;;6.78;2.10;;;12.60;99.90;;;;;;5027102;28;20064;-69
2022/06/10 03:21:59;;;;;;;7.13;2.00;;;12.50;99.90;;;;;;5019002;28;20064;-69
2022/06/10 03:24:31;;;;;;;;;;;12.50;99.90;;;;;;5028767;28;20124;-68
2022/06/10 03:27:02;;;;;;;6.15;2.08;;;12.50;99.90;;;;;;5032175;28;19956;-69
2022/06/10 03:29:50;;;;;;;10.05;2.22;;;12.50;99.90;;;;;;5027779;28;20041;-69
2022/06/10 03:32:35;;;;;;;5.97;1.90;;;12.50;99.90;;;;;;5021962;28;20045;-69
2022/06/10 03:35:18;;;;;;;9.82;1.98;;;12.50;99.90;;;;;;5031917;28;20224;-69
2022/06/10 03:37:44;;;;;;;4.97;2.30;;;12.50;99.90;;;;;;5042705;28;20524;-68
2022/06/10 03:40:27;;;;;;;6.95;2.22;;;12.50;99.90;;;;;;5024252;28;20037;-69
2022/06/10 03:42:56;;;;;;;5.72;2.17;;;12.50;99.90;;;;;;5024794;28;20033;-69
2022/06/10 03:45:32;;;;;;;5.10;2.08;;;12.60;99.90;;;;;;5037342;28;20048;-69
2022/06/10 03:47:58;;;;;;;7.00;2.28;;;12.60;99.90;;;;;;5031820;28;20049;-69
2022/06/10 03:50:26;;;;;;;9.13;2.57;;;12.50;99.90;;;;;;5032463;28;20126;-68
2022/06/10 03:52:52;;;;;;;12.45;2.42;;;12.60;99.90;;;;;;5023708;28;20053;-69
2022/06/10 03:55:19;;;;;;;5.03;1.70;;;12.60;99.90;;;;;;5049717;23;20070;31
2022/06/10 03:57:46;;;;;;;6.32;2.30;;;12.60;99.90;;;;;;5034337;28;20393;-72
2022/06/10 04:00:19;;;;;;;9.25;2.58;;;12.60;99.90;;;;;;5071542;28;20046;-69
2022/06/10 04:02:44;;;;;;;4.93;2.15;;;12.60;99.90;;;;;;5059518;28;20143;-70
2022/06/10 04:05:11;;;;;;;5.30;1.90;;;12.70;99.90;;;;;;5059040;28;20354;-69
2022/06/10 04:07:37;;;;;;;5.85;1.80;;;12.70;99.90;;;;;;5069609;28;20282;-69
2022/06/10 04:10:04;;;;;;;4.57;2.10;;;12.70;99.90;;;;;;5058248;28;20389;-69
2022/06/10 04:12:30;;;;;;;6.55;1.77;;;12.80;99.90;;;;;;5072149;28;20059;-69
2022/06/10 04:14:55;;;;;;;9.98;2.67;;;12.80;99.90;;;;;;5053641;28;20123;-71
2022/06/10 04:17:21;;;;;;;3.13;1.77;;;12.90;99.90;;;;;;5070467;28;20032;-70
2022/06/10 04:19:47;;;;;;;4.63;1.85;;;12.90;99.90;;;;;;5070651;28;20357;-70
2022/06/10 04:22:12;;;;;;;3.47;1.57;;;12.90;99.90;;;;;;5067578;28;20101;-69
2022/06/10 04:24:38;;;;;;;5.47;2.17;;;13.00;99.90;;;;;;5066996;28;20507;-69
2022/06/10 04:27:04;;;;;;;4.53;1.63;;;13.00;99.90;;;;;;5035698;28;20074;-69
2022/06/10 04:29:30;;;;;;;5.55;1.95;;;13.00;99.90;;;;;;5057364;28;20094;-69
2022/06/10 04:31:56;;;;;;;6.72;1.95;;;13.10;99.90;;;;;;5048479;28;20060;-69
2022/06/10 04:34:21;;;;;;;4.83;2.00;;;13.10;99.90;;;;;;5070161;28;20084;-69
2022/06/10 04:36:47;;;;;;;9.03;2.37;;;13.10;99.90;;;;;;5066041;28;20483;-69
2022/06/10 04:39:13;;;;;;;5.63;1.80;;;13.20;99.90;;;;;;5048256;28;20045;-69
2022/06/10 04:41:39;;;;;;;5.82;1.80;;;13.20;99.90;;;;;;5068148;28;20025;-69
2022/06/10 04:44:06;;;;;;;5.28;1.92;;;13.30;99.90;;;;;;5061787;28;20437;-69
2022/06/10 04:46:33;;;;;;;;;;;13.30;99.90;;;;;;5049552;28;20060;-69
2022/06/10 04:48:59;;;;;;;6.70;1.42;;;13.30;99.90;;;;;;5054915;28;20395;-69
2022/06/10 04:51:25;;;;;;;8.25;2.13;;;13.40;99.90;;;;;;5057595;28;20131;-69
2022/06/10 04:53:51;;;;;;;5.82;1.60;;;13.40;99.90;;;;;;5068025;28;20272;-69
2022/06/10 04:56:18;;;;;;;6.10;1.70;;;13.50;99.90;;;;;;5050857;28;20041;-70
2022/06/10 04:58:44;;;;;;;8.43;2.00;;;13.50;99.90;;;;;;5062203;28;20263;-69
2022/06/10 05:01:09;;;;;;;12.63;2.00;;;13.60;99.90;;;;;;5055399;28;20044;-69
2022/06/10 05:03:35;;;;;;;3.70;1.40;;;13.60;99.90;;;;;;5067647;28;20574;-69
2022/06/10 05:06:01;;;;;;;3.60;2.38;;;13.60;99.90;;;;;;5069510;28;20386;-69
2022/06/10 05:08:27;;;;;;;6.03;1.90;;;13.70;99.90;;;;;;5047380;28;20270;-69
2022/06/10 05:10:52;;;;;;;9.50;2.33;;;13.70;99.90;;;;;;5050778;28;20356;-69
2022/06/10 05:13:20;;;;;;;8.53;2.53;;;13.70;99.90;;;;;;5067889;28;20044;-69
2022/06/10 05:15:47;;;;;;;6.85;2.28;;;13.70;99.90;;;;;;5050785;28;20066;-69
2022/06/10 05:18:15;;;;;;;9.20;2.03;;;13.80;99.90;;;;;;5064066;28;20029;-70
2022/06/10 05:20:42;;;;;;;4.68;1.60;;;13.80;99.90;;;;;;5048097;28;20045;-70
2022/06/10 05:23:11;;;;;;;5.88;2.38;;;13.80;99.90;;;;;;5056030;28;20075;-70
2022/06/10 05:25:37;;;;;;;6.75;1.95;;;13.90;99.90;;;;;;5046844;28;20145;-70
2022/06/10 05:28:07;;;;;;;6.55;2.08;;;13.90;99.90;;;;;;5050470;28;20048;-70
2022/06/10 05:30:34;;;;;;;8.32;2.22;;;14.00;99.90;;;;;;5065680;28;20046;-70
2022/06/10 05:33:01;;;;;;;7.10;2.15;;;14.00;99.90;;;;;;5043944;28;20139;-70
2022/06/10 05:35:27;;;;;;;4.35;1.85;;;14.10;99.90;;;;;;5062142;28;20041;-70
2022/06/10 05:37:53;;;;;;;;;;;14.10;99.90;;;;;;5061586;28;20036;-70
2022/06/10 05:40:21;;;;;;;6.22;1.77;;;14.10;99.90;;;;;;5065961;28;20003;-71
2022/06/10 05:42:47;;;;;;;5.93;1.85;;;14.20;99.90;;;;;;5040473;28;20066;-74
2022/06/10 05:45:14;;;;;;;4.45;1.67;;;14.20;99.90;;;;;;5055911;28;20374;-70
2022/06/10 05:47:41;;;;;;;6.10;2.08;;;14.30;99.90;;;;;;5041139;28;20040;-71
2022/06/10 05:50:17;;;;;;;3.53;2.58;;;14.40;99.90;;;;;;5062014;28;20059;-71
2022/06/10 05:52:43;;;;;;;5.93;2.30;;;14.30;99.90;;;;;;5063821;28;20083;-69
2022/06/10 05:55:10;;;;;;;8.18;1.98;;;14.30;99.90;;;;;;5047442;28;20044;-71
2022/06/10 05:57:37;;;;;;;6.18;2.22;;;14.40;99.90;;;;;;5064455;28;20136;-71
2022/06/10 06:00:07;;;;;;;6.95;2.42;;;14.40;99.90;;;;;;5070297;28;20040;-70
2022/06/10 06:02:33;;;;;;;3.67;1.90;;;14.40;99.90;;;;;;5040000;28;20045;-70
2022/06/10 06:04:58;;;;;;;5.50;1.75;;;14.40;99.90;;;;;;5028540;28;20090;-71
2022/06/10 06:07:27;;;;;;;6.70;2.40;;;14.50;99.90;;;;;;5041034;28;20367;-74
2022/06/10 06:09:54;;;;;;;13.02;2.50;;;14.50;99.90;;;;;;5066976;28;20039;-71
2022/06/10 06:12:21;;;;;;;7.03;2.45;;;14.50;99.90;;;;;;5060466;28;20037;-73
2022/06/10 06:14:47;;;;;;;8.18;2.72;;;14.50;99.90;;;;;;5064238;28;20113;-70
2022/06/10 06:17:14;;;;;;;13.20;3.20;;;14.50;99.90;;;;;;5042956;28;20036;-69
2022/06/10 06:19:41;;;;;;;7.25;2.00;;;14.50;99.90;;;;;;5040052;28;20059;-70
2022/06/10 06:22:07;;;;;;;6.93;2.40;;;14.60;99.90;;;;;;5030891;28;20109;-70
2022/06/10 06:24:34;;;;;;;7.97;2.40;;;14.60;99.90;;;;;;5054806;28;20055;-70
2022/06/10 06:26:59;;;;;;;;;;;14.60;99.90;;;;;;5061510;28;20140;-70
2022/06/10 06:29:25;;;;;;;8.82;2.60;;;14.70;99.90;;;;;;5054165;28;20088;-70
2022/06/10 06:31:53;;;;;;;7.43;2.03;;;14.70;99.90;;;;;;5059046;28;20043;-70
2022/06/10 06:34:22;;;;;;;7.60;2.42;;;14.80;99.90;;;;;;5060713;28;20734;-72
2022/06/10 06:36:50;;;;;;;7.13;2.17;;;14.80;99.90;;;;;;5047242;28;20169;-70
2022/06/10 06:39:18;;;;;;;5.18;2.25;;;14.80;99.90;;;;;;5055150;28;20041;-71
2022/06/10 06:41:44;;;;;;;5.18;2.05;;;14.80;99.90;;;;;;5045599;28;20049;-70
2022/06/10 06:44:10;;;;;;;8.02;2.70;;;14.90;99.90;;;;;;5064511;28;20032;-71
2022/06/10 06:46:38;;;;;;;3.40;2.15;;;14.90;99.90;;;;;;5047705;28;20119;-70
2022/06/10 06:49:08;;;;;;;7.78;2.17;;;14.90;99.90;;;;;;5059723;28;20169;-70
2022/06/10 06:51:34;;;;;;;5.70;2.33;;;14.90;99.90;;;;;;5038384;28;20044;-70
2022/06/10 06:54:01;;;;;;;7.38;2.55;;;15.10;99.90;;;;;;5024863;28;20049;-70
2022/06/10 06:56:28;;;;;;;6.15;2.17;;;15.00;99.90;;;;;;5040674;28;20087;-70
2022/06/10 06:58:54;;;;;;;7.93;2.80;;;15.00;99.90;;;;;;5024468;28;20131;-70
2022/06/10 07:01:19;;;;;;;5.90;2.22;;;15.00;99.90;;;;;;5047685;28;20123;-70
2022/06/10 07:03:45;;;;;;;5.30;2.30;;;15.20;99.90;;;;;;5059097;28;20035;-70
2022/06/10 07:06:11;;;;;;;8.43;2.67;;;15.20;99.90;;;;;;5060348;28;20072;-70
2022/06/10 07:08:37;;;;;;;9.57;2.63;;;15.20;99.90;;;;;;5025881;28;20330;-71
2022/06/10 07:11:05;;;;;;;11.95;3.55;;;15.30;99.90;;;;;;5040054;28;20479;-70
2022/06/10 07:13:31;;;;;;;8.68;2.83;;;15.30;99.90;;;;;;5035243;28;20032;-70
2022/06/10 07:15:59;;;;;;;12.85;3.05;;;15.40;99.90;;;;;;5057877;28;20481;-70
2022/06/10 07:18:25;;;;;;;8.45;3.00;;;15.40;99.90;;;;;;5041327;28;20096;-70
2022/06/10 07:20:50;;;;;;;8.10;3.35;;;15.50;99.90;;;;;;5055165;28;20092;-70
2022/06/10 07:23:17;;;;;;;6.10;2.63;;;15.50;99.90;;;;;;5035813;28;20092;-70
2022/06/10 07:25:42;;;;;;;6.32;2.88;;;15.60;99.90;;;;;;5030039;28;20052;-69
2022/06/10 07:28:11;;;;;;;4.95;2.65;;;15.60;99.90;;;;;;5042033;28;20044;-69
2022/06/10 07:30:38;;;;;;;5.93;2.55;;;15.60;99.90;;;;;;5052940;28;20097;-70
2022/06/10 07:33:03;;;;;;;9.90;2.95;;;15.60;99.90;;;;;;5035504;28;20045;-70
2022/06/10 07:35:29;;;;;;;7.00;3.15;;;15.70;99.90;;;;;;5018547;28;20056;-69
2022/06/10 07:37:55;;;;;;;5.95;2.70;;;15.70;99.90;;;;;;5029839;28;20067;-69
2022/06/10 07:43:13;;;;;;;12.73;2.85;;;15.70;99.90;;;;;;5037678;28;20552;-70
2022/06/10 07:45:40;;;;;;;9.20;2.67;;;15.70;99.90;;;;;;5061093;28;20261;-70
2022/06/10 07:48:06;;;;;;;7.43;2.92;;;15.80;99.90;;;;;;5036859;28;20474;-70
2022/06/10 07:50:33;;;;;;;6.57;2.85;;;15.80;99.90;;;;;;5055022;28;20051;-70
2022/06/10 07:52:59;;;;;;;8.63;3.58;;;15.80;99.90;;;;;;5048040;28;20065;-69
2022/06/10 07:55:24;;;;;;;7.45;2.60;;;15.90;99.90;;;;;;5059633;28;20079;-70
2022/06/10 07:57:51;;;;;;;5.53;2.95;;;16.00;99.90;;;;;;5064677;28;20119;-70
2022/06/10 08:00:18;;;;;;;5.60;2.92;;;15.90;99.90;;;;;;5053442;28;20493;-70
2022/06/10 08:02:44;;;;;;;5.53;3.13;;;15.90;99.90;;;;;;5034763;28;20531;-70
2022/06/10 08:05:14;;;;;;;8.57;3.75;;;15.90;99.90;;;;;;5043463;28;20219;-70
2022/06/10 08:07:40;;;;;;;6.90;3.50;;;15.90;99.90;;;;;;5034669;28;20142;-70
2022/06/10 08:10:07;;;;;;;;;;;15.90;99.90;;;;;;5054491;28;20040;-70
2022/06/10 08:12:33;;;;;;;4.90;2.83;;;15.90;99.90;;;;;;5039158;28;20490;-77
2022/06/10 08:14:58;;;;;;;5.30;2.85;;;15.90;99.90;;;;;;5056641;28;20086;-70
2022/06/10 08:17:24;;;;;;;7.15;3.63;;;16.00;99.90;;;;;;5061655;28;20028;-70
2022/06/10 08:19:50;;;;;;;9.48;3.47;;;16.00;99.90;;;;;;5044627;28;20036;-70
2022/06/10 08:22:35;;;;;;;6.82;3.30;;;16.00;99.90;;;;;;5045815;28;20047;-70
2022/06/10 08:25:06;;;;;;;8.27;2.83;;;16.10;99.90;;;;;;5040071;28;20044;-70
2022/06/10 08:27:34;;;;;;;9.60;3.08;;;16.10;99.90;;;;;;5044223;28;20127;-70
2022/06/10 08:30:00;;;;;;;11.43;2.92;;;16.20;99.90;;;;;;5055709;28;20041;-70
2022/06/10 08:32:26;;;;;;;;;;;16.20;99.90;;;;;;5041992;28;20075;-70
2022/06/10 08:34:52;;;;;;;7.03;3.35;;;16.20;99.90;;;;;;5045068;28;20380;-70
2022/06/10 08:37:17;;;;;;;8.35;3.22;;;16.30;99.90;;;;;;5043173;28;20215;-70
2022/06/10 08:39:43;;;;;;;10.50;3.25;;;16.30;99.90;;;;;;5047358;28;20048;-70
2022/06/10 08:42:25;;;;;;;9.00;3.80;;;16.40;99.90;;;;;;5038390;28;20047;-69
2022/06/10 08:44:59;;;;;;;8.95;3.08;;;16.50;99.90;;;;;;5063460;28;20139;-70
2022/06/10 08:47:59;;;;;;;8.18;3.05;;;16.50;99.90;;;;;;5052957;28;20060;-70
2022/06/10 08:50:55;;;;;;;10.10;3.20;;;16.60;99.90;;;;;;5007824;28;20044;-70
2022/06/10 08:53:56;;;;;;;8.07;3.60;;;16.70;99.90;;;;;;5057438;28;20041;-70
2022/06/10 08:56:40;;;;;;;8.95;3.25;;;16.70;99.90;;;;;;5049860;28;20391;-70
2022/06/10 08:59:08;;;;;;;6.30;3.00;;;16.80;99.90;;;;;;5055992;28;20163;-70
2022/06/10 09:01:53;;;;;;;6.63;3.30;;;16.90;99.90;;;;;;5048705;28;20036;-70
2022/06/10 09:05:03;;;;;;;7.68;3.60;;;16.90;99.90;;;;;;5060387;28;20067;-70
2022/06/10 09:07:38;;;;;;;5.82;2.90;;;16.90;99.90;;;;;;5038613;28;20535;-70
2022/06/10 09:10:07;;;;;;;8.05;3.55;;;16.90;99.90;;;;;;5029956;28;20107;-70
2022/06/10 09:12:57;;;;;;;8.45;3.17;;;17.00;99.90;;;;;;5029741;28;20086;-71
2022/06/10 09:15:27;;;;;;;7.00;4.05;;;17.00;99.90;;;;;;5058107;28;20477;-71
2022/06/10 09:17:59;;;;;;;7.63;3.72;;;17.20;99.90;;;;;;5039315;28;20040;-70
2022/06/10 09:20:35;;;;;;;7.05;3.40;;;17.20;99.90;;;;;;5045368;28;20137;-70
2022/06/10 09:23:27;;;;;;;7.13;3.03;;;17.30;99.90;;;;;;5044783;28;20587;-72
2022/06/10 09:25:56;;;;;;;6.80;3.45;;;17.40;99.90;;;;;;5032800;28;20579;-71
2022/06/10 09:28:22;;;;;;;12.38;3.95;;;17.40;99.90;;;;;;5063473;28;20078;-71
2022/06/10 09:31:03;;;;;;;8.70;3.42;;;17.30;99.90;;;;;;5042837;28;20602;-70
2022/06/10 09:33:45;;;;;;;9.90;4.15;;;17.40;99.90;;;;;;5042292;28;20056;-71
2022/06/10 09:36:25;;;;;;;8.95;4.10;;;17.50;99.90;;;;;;5043452;28;20066;-71
2022/06/10 09:40:35;;;;;;;7.93;4.00;;;17.50;99.90;;;;;;5063318;28;20062;-70
2022/06/10 09:42:17;;;;;;;8.40;3.40;;;17.50;99.90;;;;;;5039293;28;20485;-71
2022/06/10 09:45:08;;;;;;;10.82;4.43;;;17.50;99.90;;;;;;5046704;28;20040;-71
2022/06/10 09:47:44;;;;;;;13.32;3.90;;;17.60;99.90;;;;;;5033468;28;20045;-71
2022/06/10 09:50:28;;;;;;;8.63;3.70;;;17.60;99.90;;;;;;5055846;28;20515;-71
2022/06/10 09:52:59;;;;;;;17.30;4.47;;;17.60;99.90;;;;;;5046031;28;20040;-71
2022/06/10 09:58:12;;;;;;;9.40;4.38;;;17.60;99.90;;;;;;5089833;22;20094;-81
2022/06/10 10:04:57;;;;;;;13.82;4.07;;;17.70;99.90;;;;;;5070865;28;20459;-80
2022/06/10 10:07:41;;;;;;;11.75;4.07;;;17.80;99.90;;;;;;5056907;28;20092;-82
2022/06/10 10:10:27;;;;;;;8.63;3.92;;;17.70;99.90;;;;;;5047064;28;20114;-81
2022/06/10 10:13:09;;;;;;;6.43;3.10;;;17.70;99.90;;;;;;5036246;28;20080;-81
2022/06/10 10:15:56;;;;;;;14.43;3.28;;;17.70;99.90;;;;;;5054209;28;20041;-82
2022/06/10 10:18:46;;;;;;;12.88;3.42;;;17.70;99.90;;;;;;5046637;28;20044;-82
2022/06/10 10:21:48;;;;;;;12.45;3.53;;;17.70;99.90;;;;;;5050459;28;20047;-82
2022/06/10 10:24:18;;;;;;;9.85;3.80;;;17.80;99.90;;;;;;5032887;28;20550;-81
2022/06/10 10:26:51;;;;;;;8.73;2.60;;;17.70;99.90;;;;;;5019327;28;20040;-81
2022/06/10 10:29:29;;;;;;;5.32;2.83;;;17.80;99.90;;;;;;5019032;28;20040;-79
2022/06/10 10:32:02;;;;;;;8.20;3.15;;;17.80;99.90;;;;;;5021605;28;20080;-80
2022/06/10 10:34:41;;;;;;;4.30;2.58;;;17.80;99.90;;;;;;5027106;28;20045;-80
2022/06/10 10:37:32;;;;;;;10.13;3.85;;;17.80;99.90;;;;;;5035780;28;20041;-82
2022/06/10 10:40:16;;;;;;;8.90;2.83;;;17.80;99.90;;;;;;5020732;28;20062;-82
2022/06/10 10:42:45;;;;;;;8.18;3.55;;;17.80;99.90;;;;;;5036244;28;20034;-80
2022/06/10 10:45:34;;;;;;;7.32;3.72;;;17.80;99.90;;;;;;5017200;28;20040;-81
2022/06/10 10:48:17;;;;;;;8.77;3.30;;;17.90;99.90;;;;;;5021520;23;20482;-70
2022/06/10 10:50:55;;;;;;;8.23;3.55;;;17.90;99.90;;;;;;5020484;28;20448;-70
2022/06/10 10:53:54;;;;;;;6.72;3.05;;;18.00;99.90;;;;;;5006669;28;20037;-70
2022/06/10 10:56:32;;;;;;;5.22;3.05;;;18.10;99.90;;;;;;5010957;28;20061;-70
2022/06/10 10:58:59;;;;;;;7.47;3.38;;;18.10;99.90;;;;;;5014304;28;20125;-70
2022/06/10 11:01:51;;;;;;;;;;;18.20;99.90;;;;;;5020436;28;20045;-70
2022/06/10 11:04:24;;;;;;;6.93;4.22;;;18.30;99.90;;;;;;5009175;28;19947;-70
2022/06/10 11:07:05;;;;;;;9.77;4.30;;;18.30;99.90;;;;;;5025269;28;20335;-70
2022/06/10 11:09:32;;;;;;;11.50;4.40;;;18.30;99.90;;;;;;5006283;28;20430;-70
2022/06/10 11:12:03;;;;;;;6.72;4.05;;;18.50;99.90;;;;;;5017838;28;20037;-70
2022/06/10 11:14:38;;;;;;;9.45;3.55;;;18.60;99.90;;;;;;5020397;28;20125;-70
2022/06/10 11:17:13;;;;;;;10.75;3.90;;;18.70;99.90;;;;;;5017173;28;20049;-70
2022/06/10 11:19:40;;;;;;;10.45;3.80;;;18.80;99.90;;;;;;5020671;28;20049;-70
2022/06/10 11:22:23;;;;;;;6.03;3.28;;;18.80;99.90;;;;;;5017226;28;20328;-70
2022/06/10 11:24:53;;;;;;;6.00;3.25;;;18.80;99.90;;;;;;5022772;28;20033;-70
2022/06/10 11:27:39;;;;;;;7.72;3.00;;;18.80;99.90;;;;;;5015588;28;20132;-70
2022/06/10 11:30:04;;;;;;;6.43;3.45;;;18.70;99.90;;;;;;5021495;28;20048;-71
2022/06/10 11:32:40;;;;;;;6.88;3.63;;;18.70;99.90;;;;;;5026803;28;20459;-70
2022/06/10 11:35:23;;;;;;;8.55;3.75;;;18.60;99.90;;;;;;5024398;28;20051;-70
2022/06/10 11:38:06;;;;;;;9.60;3.58;;;18.60;99.90;;;;;;5022851;28;20052;-71
2022/06/10 11:40:46;;;;;;;6.50;2.97;;;18.70;99.90;;;;;;5018502;28;20103;-70
2022/06/10 11:43:35;;;;;;;5.60;3.25;;;18.70;99.90;;;;;;5009320;28;20209;-70
2022/06/10 11:46:30;;;;;;;9.48;3.58;;;18.80;99.90;;;;;;5023194;28;20498;-70
2022/06/10 11:49:28;;;;;;;6.85;3.50;;;18.80;99.90;;;;;;5024980;28;20049;-70
2022/06/10 11:52:03;;;;;;;;;;;18.90;99.90;;;;;;5021535;28;20068;-70
2022/06/10 11:54:37;;;;;;;8.20;3.28;;;19.00;99.90;;;;;;5027839;28;19917;-71
2022/06/10 12:00:36;;;;;;;9.75;3.80;;;19.20;99.90;;;;;;5025801;28;20538;-70
2022/06/10 12:03:02;;;;;;;10.35;3.90;;;19.30;99.90;;;;;;5021326;28;20095;-70
2022/06/10 12:05:54;;;;;;;10.20;3.58;;;19.50;99.90;;;;;;5025442;28;20498;-70
2022/06/10 12:09:00;;;;;;;5.63;3.22;;;19.60;99.90;;;;;;5018116;28;20475;-71
2022/06/10 12:12:19;;;;;;;7.68;2.40;;;19.70;99.90;;;;;;5026742;28;20096;-70
2022/06/10 12:14:53;;;;;;;4.38;2.42;;;19.90;99.90;;;;;;4954341;28;20039;-71
2022/06/10 12:17:44;;;;;;;3.67;2.22;;;20.00;99.90;;;;;;4934899;28;20035;-70
2022/06/10 12:20:19;;;;;;;4.00;2.03;;;20.10;99.90;;;;;;5007768;28;20110;-70
2022/06/10 12:22:46;;;;;;;7.85;2.42;;;20.20;99.90;;;;;;5023299;28;20046;-70
2022/06/10 12:25:28;;;;;;;7.07;2.33;;;20.30;99.90;;;;;;5025290;28;20045;-70
2022/06/10 12:28:08;;;;;;;5.00;2.00;;;20.30;99.90;;;;;;5025853;28;20068;-70
2022/06/10 12:31:10;;;;;;;4.57;1.77;;;20.30;99.90;;;;;;5030977;28;20080;-71
2022/06/10 12:33:47;;;;;;;6.03;1.52;;;20.30;99.90;;;;;;5008624;28;20184;-70
2022/06/10 12:36:20;;;;;;;2.20;1.30;;;20.30;99.90;;;;;;5028787;28;20041;-70
2022/06/10 12:38:49;;;;;;;1.98;1.35;;;20.10;99.90;;;;;;5024514;28;20068;-70
2022/06/10 12:41:18;;;;;;;2.33;1.40;;;20.10;99.90;;;;;;5029181;28;20034;-70
2022/06/10 12:43:56;;;;;;;3.83;1.70;;;20.10;99.90;;;;;;5023019;28;20045;-70
2022/06/10 12:46:30;;;;;;;3.05;1.30;;;20.10;99.90;;;;;;5026941;28;20034;-70
2022/06/10 12:48:56;;;;;;;4.93;1.10;;;20.20;99.90;;;;;;5029404;28;20370;-71
2022/06/10 12:51:42;;;;;;;2.80;1.40;;;20.30;99.90;;;;;;5027919;28;20684;-70
2022/06/10 12:54:22;;;;;;;3.67;1.27;;;20.40;99.90;;;;;;5023567;28;20042;-70
2022/06/10 12:56:47;;;;;;;4.75;1.55;;;20.60;99.90;;;;;;5028407;28;20068;-70
2022/06/10 12:59:24;;;;;;;2.97;1.17;;;20.50;99.90;;;;;;5024816;28;20481;-70
2022/06/10 13:01:52;;;;;;;5.32;1.42;;;20.50;99.90;;;;;;5021798;28;20041;-70
2022/06/10 13:04:22;;;;;;;3.97;1.30;;;20.50;99.90;;;;;;5019632;28;20479;-70
2022/06/10 13:07:00;;;;;;;5.78;1.60;;;20.50;99.90;;;;;;5027223;28;20049;-71
2022/06/10 13:09:36;;;;;;;2.63;1.20;;;20.50;99.90;;;;;;5015329;28;20529;-71
2022/06/10 13:12:08;;;;;;;;;;;20.50;99.90;;;;;;5017956;28;20489;-71
2022/06/10 13:15:00;;;;;;;3.05;1.00;;;20.70;99.90;;;;;;5017664;28;20424;-71
2022/06/10 13:17:28;;;;;;;2.83;1.17;;;20.80;99.90;;;;;;5023960;28;20060;-70
2022/06/10 13:19:54;;;;;;;2.03;0.90;;;20.90;99.90;;;;;;5016232;28;20137;-71
2022/06/10 13:22:20;;;;;;;4.25;1.23;;;20.90;99.90;;;;;;5018588;28;20179;-74
2022/06/10 13:24:52;;;;;;;4.65;1.30;;;20.80;99.90;;;;;;5004995;28;20402;-71
2022/06/10 13:27:31;;;;;;;3.35;1.17;;;20.90;99.90;;;;;;5005689;28;20037;-71
2022/06/10 13:30:01;;;;;;;7.68;1.42;;;20.90;99.90;;;;;;5025262;28;20136;-71
2022/06/10 13:32:28;;;;;;;5.40;1.33;;;21.10;99.90;;;;;;5020418;28;20077;-70
2022/06/10 13:35:02;;;;;;;2.53;1.20;;;21.10;99.90;;;;;;5014943;28;20105;-71
2022/06/10 13:37:31;;;;;;;6.70;1.40;;;21.10;99.90;;;;;;5022272;28;20049;-71